Map

Track Data

SID SEASON NUMBER BASIN SUBBASIN NAME ISO_TIME NATURE LAT LON WMO_WIND WMO_PRES WMO_AGENCY TRACK_TYPE DIST2LAND LANDFALL IFLAG USA_AGENCY USA_ATCF_ID USA_LAT USA_LON USA_RECORD USA_STATUS USA_WIND USA_PRES USA_SSHS USA_R34_NE USA_R34_SE USA_R34_SW USA_R34_NW USA_R50_NE USA_R50_SE USA_R50_SW USA_R50_NW USA_R64_NE USA_R64_SE USA_R64_SW USA_R64_NW USA_POCI USA_ROCI USA_RMW USA_EYE TOKYO_LAT TOKYO_LON TOKYO_GRADE TOKYO_WIND TOKYO_PRES TOKYO_R50_DIR TOKYO_R50_LONG TOKYO_R50_SHORT TOKYO_R30_DIR TOKYO_R30_LONG TOKYO_R30_SHORT TOKYO_LAND CMA_LAT CMA_LON CMA_CAT CMA_WIND CMA_PRES HKO_LAT HKO_LON HKO_CAT HKO_WIND HKO_PRES NEWDELHI_LAT NEWDELHI_LON NEWDELHI_GRADE NEWDELHI_WIND NEWDELHI_PRES NEWDELHI_CI NEWDELHI_DP NEWDELHI_POCI REUNION_LAT REUNION_LON REUNION_TYPE REUNION_WIND REUNION_PRES REUNION_TNUM REUNION_CI REUNION_RMW REUNION_R34_NE REUNION_R34_SE REUNION_R34_SW REUNION_R34_NW REUNION_R50_NE REUNION_R50_SE REUNION_R50_SW REUNION_R50_NW REUNION_R64_NE REUNION_R64_SE REUNION_R64_SW REUNION_R64_NW BOM_LAT BOM_LON BOM_TYPE BOM_WIND BOM_PRES BOM_TNUM BOM_CI BOM_RMW BOM_R34_NE BOM_R34_SE BOM_R34_SW BOM_R34_NW BOM_R50_NE BOM_R50_SE BOM_R50_SW BOM_R50_NW BOM_R64_NE BOM_R64_SE BOM_R64_SW BOM_R64_NW BOM_ROCI BOM_POCI BOM_EYE BOM_POS_METHOD BOM_PRES_METHOD NADI_LAT NADI_LON NADI_CAT NADI_WIND NADI_PRES WELLINGTON_LAT WELLINGTON_LON WELLINGTON_WIND WELLINGTON_PRES DS824_LAT DS824_LON DS824_STAGE DS824_WIND DS824_PRES TD9636_LAT TD9636_LON TD9636_STAGE TD9636_WIND TD9636_PRES TD9635_LAT TD9635_LON TD9635_WIND TD9635_PRES TD9635_ROCI NEUMANN_LAT NEUMANN_LON NEUMANN_CLASS NEUMANN_WIND NEUMANN_PRES MLC_LAT MLC_LON MLC_CLASS MLC_WIND MLC_PRES USA_GUST BOM_GUST BOM_GUST_PER REUNION_GUST REUNION_GUST_PER USA_SEAHGT USA_SEARAD_NE USA_SEARAD_SE USA_SEARAD_SW USA_SEARAD_NW STORM_SPEED STORM_DIR
1902305N20293 1902 46 NA NA NOT_NAMED 1902-11-01 00:00:00 TS 20.0000 -67.3000 30 hurdat_atl main 178 178 O_____________ hurdat_atl AL051902 20.0000 -67.3000 TD 30 -1 16 305
1902305N20293 1902 46 NA NA NOT_NAMED 1902-11-01 03:00:00 TS 20.4657 -67.9982 main 191 183 P_____________ AL051902 20.4657 -67.9982 TD 30 -1 14 317
1902305N20293 1902 46 NA NA NOT_NAMED 1902-11-01 06:00:00 TS 21.0000 -68.3000 30 hurdat_atl main 216 216 O_____________ hurdat_atl AL051902 21.0000 -68.3000 TD 30 -1 12 2
1902305N20293 1902 46 NA NA NOT_NAMED 1902-11-01 09:00:00 TS 21.6678 -67.9510 main 300 300 P_____________ AL051902 21.6678 -67.9510 TD 32 -1 18 32
1902305N20293 1902 46 NA NA NOT_NAMED 1902-11-01 12:00:00 TS 22.5000 -67.3000 35 hurdat_atl main 413 413 O_____________ hurdat_atl AL051902 22.5000 -67.3000 TS 35 0 21 30
1902305N20293 1902 46 NA NA NOT_NAMED 1902-11-01 15:00:00 TS 23.5124 -66.7998 main 536 536 P_____________ AL051902 23.5124 -66.7998 TS 35 0 23 24
1902305N20293 1902 46 NA NA NOT_NAMED 1902-11-01 18:00:00 TS 24.6000 -66.3000 35 hurdat_atl main 668 668 O_____________ hurdat_atl AL051902 24.6000 -66.3000 TS 35 0 23 23
1902305N20293 1902 46 NA NA NOT_NAMED 1902-11-01 21:00:00 TS 25.5995 -65.8282 main 790 790 P_____________ AL051902 25.5995 -65.8282 TS 35 0 22 24
1902305N20293 1902 46 NA NA NOT_NAMED 1902-11-02 00:00:00 TS 26.6000 -65.3000 35 hurdat_atl main 912 912 O_____________ hurdat_atl AL051902 26.6000 -65.3000 TS 35 0 23 28
1902305N20293 1902 46 NA NA NOT_NAMED 1902-11-02 03:00:00 TS 27.6652 -64.6228 main 1044 1044 P_____________ AL051902 27.6652 -64.6228 TS 37 0 24 31
1902305N20293 1902 46 NA NA NOT_NAMED 1902-11-02 06:00:00 TS 28.7000 -63.9000 40 hurdat_atl main 1164 1164 O_____________ hurdat_atl AL051902 28.7000 -63.9000 TS 40 0 23 31
1902305N20293 1902 46 NA NA NOT_NAMED 1902-11-02 09:00:00 TS 29.6595 -63.2415 main 1285 1285 P_____________ AL051902 29.6595 -63.2415 TS 42 0 21 32
1902305N20293 1902 46 NA NA NOT_NAMED 1902-11-02 12:00:00 TS 30.5000 -62.6000 45 hurdat_atl main 1334 1332 O_____________ hurdat_atl AL051902 30.5000 -62.6000 TS 45 0 19 36
1902305N20293 1902 46 NA NA NOT_NAMED 1902-11-02 15:00:00 TS 31.2174 -61.9269 main 1357 1344 P_____________ AL051902 31.2174 -61.9269 TS 47 0 17 41
1902305N20293 1902 46 NA NA NOT_NAMED 1902-11-02 18:00:00 TS 31.8000 -61.3000 50 hurdat_atl main 1345 1307 O_____________ hurdat_atl AL051902 31.8000 -61.3000 TS 50 0 14 42
1902305N20293 1902 46 NA NA NOT_NAMED 1902-11-02 21:00:00 TS 32.2869 -60.7836 main 1307 1275 P_____________ AL051902 32.2869 -60.7836 TS 52 0 12 43
1902305N20293 1902 46 NA NA NOT_NAMED 1902-11-03 00:00:00 TS 32.7000 -60.3000 55 hurdat_atl main 1278 1252 O_____________ hurdat_atl AL051902 32.7000 -60.3000 TS 55 0 12 46
1902305N20293 1902 46 NA NA NOT_NAMED 1902-11-03 03:00:00 TS 33.1073 -59.7644 main 1252 1228 P_____________ AL051902 33.1073 -59.7644 TS 57 0 12 49
1902305N20293 1902 46 NA NA NOT_NAMED 1902-11-03 06:00:00 TS 33.5000 -59.2000 60 hurdat_atl main 1231 1210 O_____________ hurdat_atl AL051902 33.5000 -59.2000 TS 60 0 13 51
1902305N20293 1902 46 NA NA NOT_NAMED 1902-11-03 09:00:00 TS 33.9227 -58.5779 main 1214 1196 P_____________ AL051902 33.9227 -58.5779 TS 60 0 13 51
1902305N20293 1902 46 NA NA NOT_NAMED 1902-11-03 12:00:00 TS 34.3000 -58.0000 60 hurdat_atl main 1201 1190 O_____________ hurdat_atl AL051902 34.3000 -58.0000 TS 60 0 11 52
1902305N20293 1902 46 NA NA NOT_NAMED 1902-11-03 15:00:00 TS 34.5796 -57.5617 main 1190 1186 P_____________ AL051902 34.5796 -57.5617 TS 60 0 8 53
1902305N20293 1902 46 NA NA NOT_NAMED 1902-11-03 18:00:00 TS 34.8000 -57.2000 60 hurdat_atl main 1191 1187 O_____________ hurdat_atl AL051902 34.8000 -57.2000 TS 60 0 7 54
1902305N20293 1902 46 NA NA NOT_NAMED 1902-11-03 21:00:00 TS 34.9998 -56.8495 main 1191 1175 P_____________ AL051902 34.9998 -56.8495 TS 60 0 7 55
1902305N20293 1902 46 NA NA NOT_NAMED 1902-11-04 00:00:00 TS 35.2000 -56.5000 60 hurdat_atl main 1178 1163 O_____________ hurdat_atl AL051902 35.2000 -56.5000 TS 60 0 8 53
1902305N20293 1902 46 NA NA NOT_NAMED 1902-11-04 03:00:00 TS 35.4575 -56.1002 main 1158 1147 P_____________ AL051902 35.4575 -56.1002 TS 57 0 8 53
1902305N20293 1902 46 NA NA NOT_NAMED 1902-11-04 06:00:00 TS 35.7000 -55.7000 55 hurdat_atl main 1150 1140 O_____________ hurdat_atl AL051902 35.7000 -55.7000 TS 55 0 7 55
1902305N20293 1902 46 NA NA NOT_NAMED 1902-11-04 09:00:00 TS 35.8644 -55.3794 main 1140 1140 P_____________ AL051902 35.8644 -55.3794 TS 52 0 6 62
1902305N20293 1902 46 NA NA NOT_NAMED 1902-11-04 12:00:00 TS 36.0000 -55.0000 50 hurdat_atl main 1144 1141 O_____________ hurdat_atl AL051902 36.0000 -55.0000 TS 50 0 8 70
1902305N20293 1902 46 NA NA NOT_NAMED 1902-11-04 15:00:00 TS 36.1504 -54.4226 main 1147 1145 P_____________ AL051902 36.1504 -54.4226 TS 50 0 10 73
1902305N20293 1902 46 NA NA NOT_NAMED 1902-11-04 18:00:00 TS 36.3000 -53.8000 50 hurdat_atl main 1145 1134 O_____________ hurdat_atl AL051902 36.3000 -53.8000 TS 50 0 10 72
1902305N20293 1902 46 NA NA NOT_NAMED 1902-11-04 21:00:00 TS 36.4572 -53.2774 main 1123 1112 P_____________ AL051902 36.4572 -53.2774 TS 50 0 9 70
1902305N20293 1902 46 NA NA NOT_NAMED 1902-11-05 00:00:00 TS 36.6000 -52.8000 50 hurdat_atl main 1112 1102 O_____________ hurdat_atl AL051902 36.6000 -52.8000 TS 50 0 8 72
1902305N20293 1902 46 NA NA NOT_NAMED 1902-11-05 03:00:00 TS 36.7072 -52.3422 main 1103 1093 P_____________ AL051902 36.7072 -52.3422 TS 50 0 7 75
1902305N20293 1902 46 NA NA NOT_NAMED 1902-11-05 06:00:00 TS 36.8000 -51.9000 50 hurdat_atl main 1095 1086 O_____________ hurdat_atl AL051902 36.8000 -51.9000 TS 50 0 7 74
1902305N20293 1902 46 NA NA NOT_NAMED 1902-11-05 09:00:00 TS 36.9070 -51.4725 main 1088 1079 P_____________ AL051902 36.9070 -51.4725 TS 50 0 7 74
1902305N20293 1902 46 NA NA NOT_NAMED 1902-11-05 12:00:00 TS 37.0000 -51.0000 50 hurdat_atl main 1083 1078 O_____________ hurdat_atl AL051902 37.0000 -51.0000 TS 50 0 9 79
1902305N20293 1902 46 NA NA NOT_NAMED 1902-11-05 15:00:00 TS 37.0650 -50.4225 main 1081 1081 P_____________ AL051902 37.0650 -50.4225 TS 45 0 10 84
1902305N20293 1902 46 NA NA NOT_NAMED 1902-11-05 18:00:00 TS 37.1000 -49.8000 40 hurdat_atl main 1093 1093 O_____________ hurdat_atl AL051902 37.1000 -49.8000 TS 40 0 10 87
1902305N20293 1902 46 NA NA NOT_NAMED 1902-11-05 21:00:00 TS 37.1147 -49.2000 main 1106 1106 P_____________ AL051902 37.1147 -49.2000 TS 37 0 10 90
1902305N20293 1902 46 NA NA NOT_NAMED 1902-11-06 00:00:00 TS 37.1000 -48.6000 35 hurdat_atl main 1122 1122 O_____________ hurdat_atl AL051902 37.1000 -48.6000 TS 35 0 10 94
1902305N20293 1902 46 NA NA NOT_NAMED 1902-11-06 03:00:00 TS 37.0500 -47.9772 main 1139 1139 P_____________ AL051902 37.0500 -47.9772 TS 32 -1 10 96
1902305N20293 1902 46 NA NA NOT_NAMED 1902-11-06 06:00:00 TS 37.0000 -47.4000 30 hurdat_atl main 1169 1169 O_____________ hurdat_atl AL051902 37.0000 -47.4000 TD 30 -1 8 95
1902305N20293 1902 46 NA NA NOT_NAMED 1902-11-06 09:00:00 TS 36.9844 -46.9425 main 1186 1186 P_____________ AL051902 36.9844 -46.9425 TD 27 -1 7 90
1902305N20293 1902 46 NA NA NOT_NAMED 1902-11-06 12:00:00 TS 37.0000 -46.5000 25 hurdat_atl main 1201 1201 O_____________ hurdat_atl AL051902 37.0000 -46.5000 TD 25 -1 8 86
1902305N20293 1902 46 NA NA NOT_NAMED 1902-11-06 15:00:00 TS 37.0433 -45.9777 main 1221 1215 P_____________ AL051902 37.0433 -45.9777 TD 22 -1 9 83
1902305N20293 1902 46 NA NA NOT_NAMED 1902-11-06 18:00:00 TS 37.1000 -45.4000 20 hurdat_atl main 1235 O_____________ hurdat_atl AL051902 37.1000 -45.4000 TD 20 -1 9 83

About IBTrACS Database

This database is a web-friendly format of International Best Track Archive for Climate Stewardship (IBTrACS), a global best track data archive curated by NOAA dating back to 1842.

Updated: 2021-12-08